Impacts TAF Board
For situational awareness. Not to be used for flight planning purposes.
IDs:

KPUB - Pueblo Mem Arpt, CO, US

Issued at 1740 UTC 02 Aug 2021
Updated at 2241 UTC 02 Aug 2021
Potential Impact None Slight Moderate High
Time2153Z 02/23Z 03/00Z 03/01Z 03/02Z 03/03Z 03/04Z 03/05Z 03/06Z 03/07Z 03/08Z 03/09Z 03/10Z 03/11Z>>
Type OBS PRVL PRVL PRVL PRVL PRVL PRVL PRVL PRVL PRVL PRVL PRVL PRVL PRVL
VIS 8 >6 >6 >6 >6 >6 >6 >6 >6 >6 >6 >6 >6 >6
CIG -- -- -- -- -- -- 200 200 200 200 200 200 200 200
Cover CLR SCT SCT SCT SCT SCT BKN BKN BKN BKN BKN BKN BKN BKN
FltCat VFR VFR VFR VFR VFR VFR VFR VFR VFR VFR VFR VFR VFR VFR
WX -- -- -- -- -- -- -- -- -- -- -- -- -- --
WDir 150 130 130 130 130 130 20 20 20 20 20 20 20 20
WSpd 4 10 10 10 10 10 5 5 5 5 5 5 5 5
WGst -- -- -- -- -- -- -- -- -- -- -- -- -- --
Raw TAF
KPUB 021740Z 0218/0318 13010KT P6SM SCT250
  FM030400 02005KT P6SM SCT100 BKN200
  FM031200 27005KT P6SM BKN120 BKN200


Raw METAR
KPUB 022153Z 15004KT 8SM CLR 30/12 A3017 RMK AO2 SLP153 T03000117 $
KPUB 022053Z VRB03KT CLR 29/12 A3019 RMK AO2 SLP163 T02890117 56026 $
KPUB 021953Z 18005KT 7SM CLR 28/12 A3022 RMK AO2 SLP173 T02830122 $

METAR Board
Radar Display
Forecast Discussion
For situational awareness. Not to be used for flight planning purposes.